Hovedside
METAR-TAF:

METAR-TAF

Lufthavner :

Notodden, Norge

Notodden lufthavn

breddegrad: 59-34N, lengdegrad: 009-13E, høyde over havet: 19 m

Gjeldene værobservasjon

Denne rapporten ble laget for 6 timer og 12 minutter siden, klokken 15:50 UTC
Vind 8 kt fra Sør-sørøst
Temperatur 19°C
Luftfuktighet 73%
Trykk 1005 hPa
Sikt 10 km eller mer
Få skyer i en høyde av 3000 ft
Brutte skyer i en høyde av 5000 ft
regnbyger i nærheten

METAR: ENNO 181550Z 15008KT 9999 VCSH FEW030 BKN050 19/14 Q1005

Tid: 00:02 (22:02 UTC)

Varsel

Denne rapporten ble laget for 11 timer og 2 minutter siden, klokken 11:00 UTC
Varsel gyldig fra 18. klokken 12 UTC til 18. klokken 17 UTC
Vind 5 kt fra Sørøst
Sikt 10 km eller mer
Få skyer i en høyde av 1500 ft
Brutte skyer i en høyde av 2500 ft
Midlertidig
fra 18. klokken 12 UTC til 18. klokken 17 UTC
Spredte skyer i en høyde av 2000 ft, Bygeskyer.
regnbyger

TAF: ENNO 181100Z 1812/1817 13005KT 9999 FEW015 BKN025 TEMPO 1812/1817 SHRA SCT020CB

Værobservasjoner og værvarsel for over 4000 flyplasser (METAR- og TAF-rapporter).

Tilgjengelige stasjoner er representert av de røde og gule prikkene på kartet.

Hold musepekeren over prikken for å se navnet på stasjonen.

Klikk så for å se værobservasjoner og -varsler.

For å forandre kartet kan du klikke på den grønne knappen med svart kryss for å zoome inn, på den grønne knappen med strek for å zoome ut, eller på de grønne pilene for å se tilstøtende kart.


METAR-TAF: